sensor_id;sensor_type;location;lat;lon;timestamp;P1;durP1;ratioP1;P2;durP2;ratioP2
75417;SDS011;63997;52.112;5.420;2022-12-22T00:00:21;22.95;;;13.65;;
75417;SDS011;63997;52.112;5.420;2022-12-22T00:03:12;21.67;;;13.55;;
75417;SDS011;63997;52.112;5.420;2022-12-22T00:05:57;20.53;;;12.27;;
75417;SDS011;63997;52.112;5.420;2022-12-22T00:08:42;22.05;;;13.68;;
75417;SDS011;63997;52.112;5.420;2022-12-22T00:11:31;24.85;;;13.85;;
75417;SDS011;63997;52.112;5.420;2022-12-22T00:14:16;21.60;;;12.43;;
75417;SDS011;63997;52.112;5.420;2022-12-22T00:17:01;19.95;;;12.50;;
75417;SDS011;63997;52.112;5.420;2022-12-22T00:19:46;20.87;;;12.80;;
75417;SDS011;63997;52.112;5.420;2022-12-22T00:22:31;21.70;;;12.63;;
75417;SDS011;63997;52.112;5.420;2022-12-22T00:25:16;21.45;;;12.25;;
75417;SDS011;63997;52.112;5.420;2022-12-22T00:28:02;20.60;;;11.80;;
75417;SDS011;63997;52.112;5.420;2022-12-22T00:30:55;20.48;;;11.93;;
75417;SDS011;63997;52.112;5.420;2022-12-22T00:33:40;21.73;;;13.03;;
75417;SDS011;63997;52.112;5.420;2022-12-22T00:36:27;24.92;;;12.15;;
75417;SDS011;63997;52.112;5.420;2022-12-22T00:39:12;17.65;;;12.13;;
75417;SDS011;63997;52.112;5.420;2022-12-22T00:41:58;19.05;;;12.25;;
75417;SDS011;63997;52.112;5.420;2022-12-22T00:44:42;17.27;;;11.82;;
75417;SDS011;63997;52.112;5.420;2022-12-22T00:47:27;17.73;;;11.63;;
75417;SDS011;63997;52.112;5.420;2022-12-22T00:50:14;17.52;;;11.32;;
75417;SDS011;63997;52.112;5.420;2022-12-22T00:53:00;22.55;;;11.27;;
75417;SDS011;63997;52.112;5.420;2022-12-22T00:55:46;18.20;;;10.57;;
75417;SDS011;63997;52.112;5.420;2022-12-22T00:58:31;18.90;;;10.55;;
75417;SDS011;63997;52.112;5.420;2022-12-22T01:01:16;17.10;;;10.67;;
75417;SDS011;63997;52.112;5.420;2022-12-22T01:04:00;17.00;;;10.57;;
75417;SDS011;63997;52.112;5.420;2022-12-22T01:06:47;17.15;;;10.82;;
75417;SDS011;63997;52.112;5.420;2022-12-22T01:09:32;17.95;;;10.75;;
75417;SDS011;63997;52.112;5.420;2022-12-22T01:12:19;16.55;;;9.77;;
75417;SDS011;63997;52.112;5.420;2022-12-22T01:15:13;18.77;;;11.27;;
75417;SDS011;63997;52.112;5.420;2022-12-22T01:18:01;18.23;;;10.77;;
75417;SDS011;63997;52.112;5.420;2022-12-22T01:20:46;16.85;;;10.55;;
75417;SDS011;63997;52.112;5.420;2022-12-22T01:23:31;16.70;;;11.07;;
75417;SDS011;63997;52.112;5.420;2022-12-22T01:26:16;18.13;;;10.88;;
75417;SDS011;63997;52.112;5.420;2022-12-22T01:29:01;17.00;;;9.97;;
75417;SDS011;63997;52.112;5.420;2022-12-22T01:31:46;21.30;;;13.35;;
75417;SDS011;63997;52.112;5.420;2022-12-22T01:34:30;19.92;;;11.80;;
75417;SDS011;63997;52.112;5.420;2022-12-22T01:37:15;17.85;;;10.95;;
75417;SDS011;63997;52.112;5.420;2022-12-22T01:40:00;21.95;;;11.75;;
75417;SDS011;63997;52.112;5.420;2022-12-22T01:42:45;21.67;;;10.90;;
75417;SDS011;63997;52.112;5.420;2022-12-22T01:45:32;19.63;;;11.13;;
75417;SDS011;63997;52.112;5.420;2022-12-22T01:48:22;18.45;;;11.07;;
75417;SDS011;63997;52.112;5.420;2022-12-22T01:51:12;19.70;;;10.85;;
75417;SDS011;63997;52.112;5.420;2022-12-22T01:54:01;20.42;;;11.90;;
75417;SDS011;63997;52.112;5.420;2022-12-22T01:56:48;19.23;;;10.73;;
75417;SDS011;63997;52.112;5.420;2022-12-22T01:59:33;23.15;;;12.10;;
75417;SDS011;63997;52.112;5.420;2022-12-22T02:02:19;20.13;;;11.48;;
75417;SDS011;63997;52.112;5.420;2022-12-22T02:05:06;25.20;;;12.20;;
75417;SDS011;63997;52.112;5.420;2022-12-22T02:10:58;20.67;;;11.30;;
75417;SDS011;63997;52.112;5.420;2022-12-22T02:17:35;15.30;;;9.85;;
75417;SDS011;63997;52.112;5.420;2022-12-22T02:26:36;19.37;;;11.13;;
75417;SDS011;63997;52.112;5.420;2022-12-22T02:29:30;18.73;;;10.50;;
75417;SDS011;63997;52.112;5.420;2022-12-22T02:32:23;18.30;;;10.98;;
75417;SDS011;63997;52.112;5.420;2022-12-22T02:35:12;21.80;;;10.38;;
75417;SDS011;63997;52.112;5.420;2022-12-22T02:38:05;15.75;;;9.57;;
75417;SDS011;63997;52.112;5.420;2022-12-22T02:41:14;16.17;;;10.33;;
75417;SDS011;63997;52.112;5.420;2022-12-22T02:45:05;19.13;;;10.55;;
75417;SDS011;63997;52.112;5.420;2022-12-22T02:47:59;15.77;;;10.20;;
75417;SDS011;63997;52.112;5.420;2022-12-22T02:51:08;15.93;;;9.73;;
75417;SDS011;63997;52.112;5.420;2022-12-22T02:54:00;15.43;;;9.68;;
75417;SDS011;63997;52.112;5.420;2022-12-22T02:56:47;19.13;;;10.60;;
75417;SDS011;63997;52.112;5.420;2022-12-22T02:59:32;19.50;;;11.25;;
75417;SDS011;63997;52.112;5.420;2022-12-22T03:02:17;17.83;;;10.85;;
75417;SDS011;63997;52.112;5.420;2022-12-22T03:05:02;18.08;;;10.77;;
75417;SDS011;63997;52.112;5.420;2022-12-22T03:07:48;23.58;;;11.48;;
75417;SDS011;63997;52.112;5.420;2022-12-22T03:10:34;20.17;;;11.00;;
75417;SDS011;63997;52.112;5.420;2022-12-22T03:13:19;21.63;;;11.52;;
75417;SDS011;63997;52.112;5.420;2022-12-22T03:16:05;22.27;;;11.40;;
75417;SDS011;63997;52.112;5.420;2022-12-22T03:18:49;21.98;;;11.38;;
75417;SDS011;63997;52.112;5.420;2022-12-22T03:21:34;22.23;;;12.05;;
75417;SDS011;63997;52.112;5.420;2022-12-22T03:24:19;22.30;;;11.93;;
75417;SDS011;63997;52.112;5.420;2022-12-22T03:27:04;22.50;;;11.77;;
75417;SDS011;63997;52.112;5.420;2022-12-22T03:29:31;25.83;;;12.45;;
75417;SDS011;63997;52.112;5.420;2022-12-22T03:31:57;23.67;;;12.27;;
75417;SDS011;63997;52.112;5.420;2022-12-22T03:34:24;24.83;;;11.80;;
75417;SDS011;63997;52.112;5.420;2022-12-22T03:36:50;26.57;;;12.23;;
75417;SDS011;63997;52.112;5.420;2022-12-22T03:39:16;25.25;;;11.32;;
75417;SDS011;63997;52.112;5.420;2022-12-22T03:41:43;24.10;;;11.57;;
75417;SDS011;63997;52.112;5.420;2022-12-22T03:44:27;26.67;;;13.32;;
75417;SDS011;63997;52.112;5.420;2022-12-22T03:47:12;25.17;;;12.20;;
75417;SDS011;63997;52.112;5.420;2022-12-22T03:49:39;31.07;;;13.07;;
75417;SDS011;63997;52.112;5.420;2022-12-22T03:52:05;26.40;;;11.80;;
75417;SDS011;63997;52.112;5.420;2022-12-22T03:54:31;28.20;;;11.82;;
75417;SDS011;63997;52.112;5.420;2022-12-22T03:56:58;28.63;;;13.05;;
75417;SDS011;63997;52.112;5.420;2022-12-22T03:59:24;28.88;;;11.57;;
75417;SDS011;63997;52.112;5.420;2022-12-22T04:01:51;28.27;;;13.53;;
75417;SDS011;63997;52.112;5.420;2022-12-22T04:04:20;32.20;;;13.93;;
75417;SDS011;63997;52.112;5.420;2022-12-22T04:06:48;38.20;;;14.23;;
75417;SDS011;63997;52.112;5.420;2022-12-22T04:09:15;33.80;;;13.00;;
75417;SDS011;63997;52.112;5.420;2022-12-22T04:11:41;30.45;;;12.95;;
75417;SDS011;63997;52.112;5.420;2022-12-22T04:14:26;49.13;;;13.37;;
75417;SDS011;63997;52.112;5.420;2022-12-22T04:16:59;32.35;;;12.43;;
75417;SDS011;63997;52.112;5.420;2022-12-22T04:19:27;31.00;;;13.80;;
75417;SDS011;63997;52.112;5.420;2022-12-22T04:21:53;35.75;;;12.73;;
75417;SDS011;63997;52.112;5.420;2022-12-22T04:24:20;56.35;;;13.27;;
75417;SDS011;63997;52.112;5.420;2022-12-22T04:26:47;28.40;;;10.33;;
75417;SDS011;63997;52.112;5.420;2022-12-22T04:29:13;28.45;;;12.07;;
75417;SDS011;63997;52.112;5.420;2022-12-22T04:31:40;30.67;;;12.20;;
75417;SDS011;63997;52.112;5.420;2022-12-22T04:34:07;50.53;;;11.85;;
75417;SDS011;63997;52.112;5.420;2022-12-22T04:36:35;35.55;;;11.07;;
75417;SDS011;63997;52.112;5.420;2022-12-22T04:39:02;24.27;;;10.27;;
75417;SDS011;63997;52.112;5.420;2022-12-22T04:41:28;42.00;;;11.68;;
75417;SDS011;63997;52.112;5.420;2022-12-22T04:43:55;39.45;;;11.55;;
75417;SDS011;63997;52.112;5.420;2022-12-22T04:46:21;28.90;;;11.07;;
75417;SDS011;63997;52.112;5.420;2022-12-22T04:48:47;19.88;;;9.98;;
75417;SDS011;63997;52.112;5.420;2022-12-22T04:51:19;26.43;;;10.97;;
75417;SDS011;63997;52.112;5.420;2022-12-22T04:53:46;24.08;;;11.07;;
75417;SDS011;63997;52.112;5.420;2022-12-22T04:56:16;20.98;;;10.00;;
75417;SDS011;63997;52.112;5.420;2022-12-22T04:58:42;35.88;;;10.88;;
75417;SDS011;63997;52.112;5.420;2022-12-22T05:01:10;32.22;;;11.07;;
75417;SDS011;63997;52.112;5.420;2022-12-22T05:03:38;28.67;;;10.60;;
75417;SDS011;63997;52.112;5.420;2022-12-22T05:06:05;37.13;;;11.55;;
75417;SDS011;63997;52.112;5.420;2022-12-22T05:08:32;26.70;;;10.70;;
75417;SDS011;63997;52.112;5.420;2022-12-22T05:11:02;25.05;;;10.52;;
75417;SDS011;63997;52.112;5.420;2022-12-22T05:13:29;26.20;;;11.65;;
75417;SDS011;63997;52.112;5.420;2022-12-22T05:16:06;19.03;;;9.60;;
75417;SDS011;63997;52.112;5.420;2022-12-22T05:18:35;21.17;;;10.55;;
75417;SDS011;63997;52.112;5.420;2022-12-22T05:21:04;39.55;;;10.20;;
75417;SDS011;63997;52.112;5.420;2022-12-22T05:23:32;46.38;;;10.98;;
75417;SDS011;63997;52.112;5.420;2022-12-22T05:25:59;30.73;;;11.35;;
75417;SDS011;63997;52.112;5.420;2022-12-22T05:28:25;20.83;;;10.17;;
75417;SDS011;63997;52.112;5.420;2022-12-22T05:30:51;17.10;;;8.90;;
75417;SDS011;63997;52.112;5.420;2022-12-22T05:33:19;46.13;;;10.32;;
75417;SDS011;63997;52.112;5.420;2022-12-22T05:35:45;33.25;;;9.50;;
75417;SDS011;63997;52.112;5.420;2022-12-22T05:38:11;18.10;;;9.27;;
75417;SDS011;63997;52.112;5.420;2022-12-22T05:40:38;25.63;;;10.47;;
75417;SDS011;63997;52.112;5.420;2022-12-22T05:43:04;23.77;;;9.95;;
75417;SDS011;63997;52.112;5.420;2022-12-22T05:45:31;28.15;;;10.50;;
75417;SDS011;63997;52.112;5.420;2022-12-22T05:47:57;19.80;;;10.73;;
75417;SDS011;63997;52.112;5.420;2022-12-22T05:50:24;19.10;;;9.50;;
75417;SDS011;63997;52.112;5.420;2022-12-22T05:52:51;23.53;;;9.87;;
75417;SDS011;63997;52.112;5.420;2022-12-22T05:55:17;19.80;;;9.93;;
75417;SDS011;63997;52.112;5.420;2022-12-22T05:57:43;21.80;;;10.02;;
75417;SDS011;63997;52.112;5.420;2022-12-22T06:00:11;19.63;;;9.48;;
75417;SDS011;63997;52.112;5.420;2022-12-22T06:02:40;21.02;;;9.02;;
75417;SDS011;63997;52.112;5.420;2022-12-22T06:05:12;18.90;;;8.90;;
75417;SDS011;63997;52.112;5.420;2022-12-22T06:07:39;16.17;;;8.60;;
75417;SDS011;63997;52.112;5.420;2022-12-22T06:10:06;16.17;;;7.25;;
75417;SDS011;63997;52.112;5.420;2022-12-22T06:12:38;16.70;;;8.63;;
75417;SDS011;63997;52.112;5.420;2022-12-22T06:15:05;18.60;;;8.35;;
75417;SDS011;63997;52.112;5.420;2022-12-22T06:17:32;16.23;;;7.97;;
75417;SDS011;63997;52.112;5.420;2022-12-22T06:20:07;17.67;;;8.65;;
75417;SDS011;63997;52.112;5.420;2022-12-22T06:22:35;17.15;;;8.57;;
75417;SDS011;63997;52.112;5.420;2022-12-22T06:25:01;14.07;;;7.45;;
75417;SDS011;63997;52.112;5.420;2022-12-22T06:27:27;18.17;;;8.60;;
75417;SDS011;63997;52.112;5.420;2022-12-22T06:29:54;17.15;;;7.75;;
75417;SDS011;63997;52.112;5.420;2022-12-22T06:32:20;16.70;;;7.78;;
75417;SDS011;63997;52.112;5.420;2022-12-22T06:34:46;17.52;;;7.70;;
75417;SDS011;63997;52.112;5.420;2022-12-22T06:37:13;17.33;;;8.05;;
75417;SDS011;63997;52.112;5.420;2022-12-22T06:39:39;21.67;;;9.03;;
75417;SDS011;63997;52.112;5.420;2022-12-22T06:42:06;21.42;;;8.90;;
75417;SDS011;63997;52.112;5.420;2022-12-22T06:44:53;22.17;;;9.50;;
75417;SDS011;63997;52.112;5.420;2022-12-22T06:47:20;24.23;;;10.38;;
75417;SDS011;63997;52.112;5.420;2022-12-22T06:49:47;23.27;;;9.93;;
75417;SDS011;63997;52.112;5.420;2022-12-22T06:52:13;21.73;;;10.03;;
75417;SDS011;63997;52.112;5.420;2022-12-22T06:54:39;26.80;;;11.82;;
75417;SDS011;63997;52.112;5.420;2022-12-22T06:57:06;27.50;;;9.85;;
75417;SDS011;63997;52.112;5.420;2022-12-22T06:59:32;29.40;;;10.35;;
75417;SDS011;63997;52.112;5.420;2022-12-22T07:01:58;23.48;;;9.32;;
75417;SDS011;63997;52.112;5.420;2022-12-22T07:04:25;28.50;;;10.70;;
75417;SDS011;63997;52.112;5.420;2022-12-22T07:06:51;26.70;;;10.48;;
75417;SDS011;63997;52.112;5.420;2022-12-22T07:09:18;25.95;;;10.45;;
75417;SDS011;63997;52.112;5.420;2022-12-22T07:11:44;27.92;;;10.70;;
75417;SDS011;63997;52.112;5.420;2022-12-22T07:14:11;27.35;;;10.90;;
75417;SDS011;63997;52.112;5.420;2022-12-22T07:16:37;30.63;;;11.20;;
75417;SDS011;63997;52.112;5.420;2022-12-22T07:19:04;30.67;;;11.18;;
75417;SDS011;63997;52.112;5.420;2022-12-22T07:21:32;28.65;;;10.23;;
75417;SDS011;63997;52.112;5.420;2022-12-22T07:23:59;26.98;;;9.55;;
75417;SDS011;63997;52.112;5.420;2022-12-22T07:26:25;23.63;;;9.20;;
75417;SDS011;63997;52.112;5.420;2022-12-22T07:28:52;20.93;;;8.90;;
75417;SDS011;63997;52.112;5.420;2022-12-22T07:31:18;22.40;;;8.80;;
75417;SDS011;63997;52.112;5.420;2022-12-22T07:33:44;19.98;;;8.77;;
75417;SDS011;63997;52.112;5.420;2022-12-22T07:36:15;23.67;;;8.43;;
75417;SDS011;63997;52.112;5.420;2022-12-22T07:38:43;22.42;;;8.63;;
75417;SDS011;63997;52.112;5.420;2022-12-22T07:41:12;28.10;;;11.93;;
75417;SDS011;63997;52.112;5.420;2022-12-22T07:43:58;24.10;;;9.15;;
75417;SDS011;63997;52.112;5.420;2022-12-22T07:46:27;27.80;;;9.60;;
75417;SDS011;63997;52.112;5.420;2022-12-22T07:48:57;29.73;;;11.50;;
75417;SDS011;63997;52.112;5.420;2022-12-22T07:51:42;32.50;;;10.73;;
75417;SDS011;63997;52.112;5.420;2022-12-22T07:54:10;26.10;;;9.83;;
75417;SDS011;63997;52.112;5.420;2022-12-22T07:56:38;32.83;;;11.02;;
75417;SDS011;63997;52.112;5.420;2022-12-22T07:59:05;29.42;;;10.77;;
75417;SDS011;63997;52.112;5.420;2022-12-22T08:01:34;31.02;;;9.77;;
75417;SDS011;63997;52.112;5.420;2022-12-22T08:04:01;27.73;;;9.90;;
75417;SDS011;63997;52.112;5.420;2022-12-22T08:06:27;28.47;;;9.80;;
75417;SDS011;63997;52.112;5.420;2022-12-22T08:08:54;26.20;;;9.20;;
75417;SDS011;63997;52.112;5.420;2022-12-22T08:11:20;25.73;;;9.07;;
75417;SDS011;63997;52.112;5.420;2022-12-22T08:13:47;23.90;;;8.25;;
75417;SDS011;63997;52.112;5.420;2022-12-22T08:16:15;24.77;;;8.73;;
75417;SDS011;63997;52.112;5.420;2022-12-22T08:18:41;26.53;;;7.53;;
75417;SDS011;63997;52.112;5.420;2022-12-22T08:21:09;20.02;;;7.38;;
75417;SDS011;63997;52.112;5.420;2022-12-22T08:23:35;22.95;;;7.38;;
75417;SDS011;63997;52.112;5.420;2022-12-22T08:26:04;17.88;;;6.95;;
75417;SDS011;63997;52.112;5.420;2022-12-22T08:28:40;22.92;;;7.05;;
75417;SDS011;63997;52.112;5.420;2022-12-22T08:31:12;17.30;;;5.50;;
75417;SDS011;63997;52.112;5.420;2022-12-22T08:33:39;18.75;;;6.35;;
75417;SDS011;63997;52.112;5.420;2022-12-22T08:36:05;19.88;;;7.13;;
75417;SDS011;63997;52.112;5.420;2022-12-22T08:38:33;15.35;;;6.38;;
75417;SDS011;63997;52.112;5.420;2022-12-22T08:41:01;17.55;;;6.95;;
75417;SDS011;63997;52.112;5.420;2022-12-22T08:43:29;21.30;;;7.47;;
75417;SDS011;63997;52.112;5.420;2022-12-22T08:45:57;26.17;;;6.90;;
75417;SDS011;63997;52.112;5.420;2022-12-22T08:48:24;24.83;;;6.97;;
75417;SDS011;63997;52.112;5.420;2022-12-22T08:50:50;17.90;;;7.07;;
75417;SDS011;63997;52.112;5.420;2022-12-22T08:53:17;15.57;;;6.60;;
75417;SDS011;63997;52.112;5.420;2022-12-22T08:56:03;13.50;;;4.90;;
75417;SDS011;63997;52.112;5.420;2022-12-22T08:58:30;11.77;;;5.25;;
75417;SDS011;63997;52.112;5.420;2022-12-22T09:00:56;17.80;;;5.95;;
75417;SDS011;63997;52.112;5.420;2022-12-22T09:03:24;14.60;;;5.40;;
75417;SDS011;63997;52.112;5.420;2022-12-22T09:05:51;15.43;;;5.32;;
75417;SDS011;63997;52.112;5.420;2022-12-22T09:08:17;14.60;;;5.07;;
75417;SDS011;63997;52.112;5.420;2022-12-22T09:10:44;14.15;;;4.97;;
75417;SDS011;63997;52.112;5.420;2022-12-22T09:13:11;12.05;;;4.75;;
75417;SDS011;63997;52.112;5.420;2022-12-22T09:15:37;13.52;;;5.00;;
75417;SDS011;63997;52.112;5.420;2022-12-22T09:18:04;10.65;;;4.32;;
75417;SDS011;63997;52.112;5.420;2022-12-22T09:20:31;15.53;;;5.33;;
75417;SDS011;63997;52.112;5.420;2022-12-22T09:22:58;13.13;;;4.82;;
75417;SDS011;63997;52.112;5.420;2022-12-22T09:25:25;17.02;;;5.30;;
75417;SDS011;63997;52.112;5.420;2022-12-22T09:27:51;14.65;;;4.45;;
75417;SDS011;63997;52.112;5.420;2022-12-22T09:30:18;13.15;;;5.53;;
75417;SDS011;63997;52.112;5.420;2022-12-22T09:32:45;14.67;;;4.90;;
75417;SDS011;63997;52.112;5.420;2022-12-22T09:35:11;13.80;;;5.25;;
75417;SDS011;63997;52.112;5.420;2022-12-22T09:37:40;11.07;;;5.05;;
75417;SDS011;63997;52.112;5.420;2022-12-22T09:40:06;15.70;;;5.65;;
75417;SDS011;63997;52.112;5.420;2022-12-22T09:42:33;13.77;;;5.30;;
75417;SDS011;63997;52.112;5.420;2022-12-22T09:45:00;9.47;;;4.77;;
75417;SDS011;63997;52.112;5.420;2022-12-22T09:47:31;13.30;;;5.20;;
75417;SDS011;63997;52.112;5.420;2022-12-22T09:50:03;10.95;;;4.82;;
75417;SDS011;63997;52.112;5.420;2022-12-22T09:55:01;10.95;;;5.13;;
75417;SDS011;63997;52.112;5.420;2022-12-22T09:57:29;12.53;;;5.23;;
75417;SDS011;63997;52.112;5.420;2022-12-22T09:59:59;14.20;;;5.03;;
75417;SDS011;63997;52.112;5.420;2022-12-22T10:02:44;11.77;;;4.68;;
75417;SDS011;63997;52.112;5.420;2022-12-22T10:05:24;10.48;;;4.50;;
75417;SDS011;63997;52.112;5.420;2022-12-22T10:08:08;9.48;;;4.72;;
75417;SDS011;63997;52.112;5.420;2022-12-22T10:10:37;11.10;;;5.23;;
75417;SDS011;63997;52.112;5.420;2022-12-22T10:13:04;12.50;;;4.75;;
75417;SDS011;63997;52.112;5.420;2022-12-22T10:15:36;13.90;;;4.97;;
75417;SDS011;63997;52.112;5.420;2022-12-22T10:18:11;10.82;;;4.28;;
75417;SDS011;63997;52.112;5.420;2022-12-22T10:20:39;7.32;;;3.45;;
75417;SDS011;63997;52.112;5.420;2022-12-22T10:28:45;13.02;;;4.43;;
75417;SDS011;63997;52.112;5.420;2022-12-22T10:33:47;11.02;;;4.75;;
75417;SDS011;63997;52.112;5.420;2022-12-22T10:36:34;8.00;;;4.60;;
75417;SDS011;63997;52.112;5.420;2022-12-22T10:39:04;9.10;;;3.90;;
75417;SDS011;63997;52.112;5.420;2022-12-22T10:41:40;11.00;;;4.72;;
75417;SDS011;63997;52.112;5.420;2022-12-22T10:44:17;8.50;;;4.22;;
75417;SDS011;63997;52.112;5.420;2022-12-22T10:46:48;8.02;;;4.32;;
75417;SDS011;63997;52.112;5.420;2022-12-22T10:49:18;8.07;;;4.60;;
75417;SDS011;63997;52.112;5.420;2022-12-22T10:51:50;10.20;;;4.97;;
75417;SDS011;63997;52.112;5.420;2022-12-22T10:54:24;8.77;;;4.57;;
75417;SDS011;63997;52.112;5.420;2022-12-22T10:56:59;9.18;;;4.25;;
75417;SDS011;63997;52.112;5.420;2022-12-22T10:59:57;10.43;;;4.78;;
75417;SDS011;63997;52.112;5.420;2022-12-22T11:02:31;9.10;;;4.63;;
75417;SDS011;63997;52.112;5.420;2022-12-22T11:05:09;9.55;;;5.38;;
75417;SDS011;63997;52.112;5.420;2022-12-22T11:07:40;10.82;;;5.57;;
75417;SDS011;63997;52.112;5.420;2022-12-22T11:13:07;11.65;;;5.28;;
75417;SDS011;63997;52.112;5.420;2022-12-22T11:16:31;11.77;;;5.40;;
75417;SDS011;63997;52.112;5.420;2022-12-22T11:21:49;11.45;;;6.18;;
75417;SDS011;63997;52.112;5.420;2022-12-22T11:27:19;10.90;;;5.88;;
75417;SDS011;63997;52.112;5.420;2022-12-22T11:30:02;11.87;;;5.57;;
75417;SDS011;63997;52.112;5.420;2022-12-22T11:32:36;10.38;;;6.07;;
75417;SDS011;63997;52.112;5.420;2022-12-22T11:35:19;10.38;;;6.22;;
75417;SDS011;63997;52.112;5.420;2022-12-22T11:40:57;15.93;;;6.43;;
75417;SDS011;63997;52.112;5.420;2022-12-22T11:43:37;11.93;;;7.10;;
75417;SDS011;63997;52.112;5.420;2022-12-22T11:49:13;13.98;;;6.75;;
75417;SDS011;63997;52.112;5.420;2022-12-22T11:51:51;12.68;;;7.57;;
75417;SDS011;63997;52.112;5.420;2022-12-22T11:54:41;10.60;;;6.28;;
75417;SDS011;63997;52.112;5.420;2022-12-22T11:57:33;10.03;;;5.60;;
75417;SDS011;63997;52.112;5.420;2022-12-22T12:11:34;8.67;;;4.10;;
75417;SDS011;63997;52.112;5.420;2022-12-22T12:14:12;7.25;;;3.55;;
75417;SDS011;63997;52.112;5.420;2022-12-22T12:16:50;6.28;;;3.60;;
75417;SDS011;63997;52.112;5.420;2022-12-22T12:22:00;7.43;;;2.67;;
75417;SDS011;63997;52.112;5.420;2022-12-22T12:27:33;6.10;;;3.33;;
75417;SDS011;63997;52.112;5.420;2022-12-22T12:30:10;11.75;;;4.35;;
75417;SDS011;63997;52.112;5.420;2022-12-22T12:32:58;14.45;;;5.10;;
75417;SDS011;63997;52.112;5.420;2022-12-22T12:38:16;9.30;;;5.53;;
75417;SDS011;63997;52.112;5.420;2022-12-22T12:44:12;10.52;;;6.05;;
75417;SDS011;63997;52.112;5.420;2022-12-22T12:52:05;11.97;;;7.23;;
75417;SDS011;63997;52.112;5.420;2022-12-22T12:57:23;16.88;;;8.60;;
75417;SDS011;63997;52.112;5.420;2022-12-22T12:59:52;17.40;;;7.80;;
75417;SDS011;63997;52.112;5.420;2022-12-22T13:10:47;20.17;;;8.55;;
75417;SDS011;63997;52.112;5.420;2022-12-22T13:15:47;20.17;;;9.07;;
75417;SDS011;63997;52.112;5.420;2022-12-22T13:20:57;22.35;;;9.10;;
75417;SDS011;63997;52.112;5.420;2022-12-22T13:26:42;19.70;;;8.63;;
75417;SDS011;63997;52.112;5.420;2022-12-22T13:31:41;21.83;;;8.60;;
75417;SDS011;63997;52.112;5.420;2022-12-22T13:37:01;21.55;;;9.80;;
75417;SDS011;63997;52.112;5.420;2022-12-22T13:39:38;21.70;;;10.02;;
75417;SDS011;63997;52.112;5.420;2022-12-22T13:42:05;22.67;;;10.30;;
75417;SDS011;63997;52.112;5.420;2022-12-22T13:44:36;27.80;;;10.63;;
75417;SDS011;63997;52.112;5.420;2022-12-22T13:47:04;21.45;;;10.43;;
75417;SDS011;63997;52.112;5.420;2022-12-22T13:49:36;25.13;;;10.65;;
75417;SDS011;63997;52.112;5.420;2022-12-22T13:52:25;22.02;;;10.35;;
75417;SDS011;63997;52.112;5.420;2022-12-22T13:54:53;21.42;;;10.13;;
75417;SDS011;63997;52.112;5.420;2022-12-22T13:57:22;28.23;;;10.00;;
75417;SDS011;63997;52.112;5.420;2022-12-22T13:59:50;21.58;;;9.60;;
75417;SDS011;63997;52.112;5.420;2022-12-22T14:02:18;23.00;;;9.52;;
75417;SDS011;63997;52.112;5.420;2022-12-22T14:05:04;19.83;;;9.52;;
75417;SDS011;63997;52.112;5.420;2022-12-22T14:07:36;21.13;;;10.35;;
75417;SDS011;63997;52.112;5.420;2022-12-22T14:10:03;24.17;;;10.70;;
75417;SDS011;63997;52.112;5.420;2022-12-22T14:12:33;26.30;;;11.43;;
75417;SDS011;63997;52.112;5.420;2022-12-22T14:15:07;21.38;;;10.98;;
75417;SDS011;63997;52.112;5.420;2022-12-22T14:17:42;25.00;;;11.13;;
75417;SDS011;63997;52.112;5.420;2022-12-22T14:20:24;25.23;;;11.07;;
75417;SDS011;63997;52.112;5.420;2022-12-22T14:22:57;26.53;;;11.17;;
75417;SDS011;63997;52.112;5.420;2022-12-22T14:25:32;28.42;;;12.27;;
75417;SDS011;63997;52.112;5.420;2022-12-22T14:28:03;23.13;;;11.98;;
75417;SDS011;63997;52.112;5.420;2022-12-22T14:30:53;29.52;;;10.85;;
75417;SDS011;63997;52.112;5.420;2022-12-22T14:35:48;26.70;;;11.27;;
75417;SDS011;63997;52.112;5.420;2022-12-22T14:40:49;29.15;;;12.07;;
75417;SDS011;63997;52.112;5.420;2022-12-22T14:43:24;19.55;;;11.20;;
75417;SDS011;63997;52.112;5.420;2022-12-22T14:46:00;27.67;;;12.18;;
75417;SDS011;63997;52.112;5.420;2022-12-22T14:48:32;23.30;;;11.93;;
75417;SDS011;63997;52.112;5.420;2022-12-22T14:51:01;23.50;;;11.82;;
75417;SDS011;63997;52.112;5.420;2022-12-22T14:53:50;25.23;;;12.07;;
75417;SDS011;63997;52.112;5.420;2022-12-22T14:56:18;25.95;;;12.18;;
75417;SDS011;63997;52.112;5.420;2022-12-22T14:58:45;25.95;;;13.00;;
75417;SDS011;63997;52.112;5.420;2022-12-22T15:06:34;26.08;;;12.30;;
75417;SDS011;63997;52.112;5.420;2022-12-22T15:11:45;30.85;;;13.63;;
75417;SDS011;63997;52.112;5.420;2022-12-22T15:14:16;27.63;;;13.03;;
75417;SDS011;63997;52.112;5.420;2022-12-22T15:16:46;25.10;;;11.75;;
75417;SDS011;63997;52.112;5.420;2022-12-22T15:19:13;26.85;;;12.50;;
75417;SDS011;63997;52.112;5.420;2022-12-22T15:21:41;28.25;;;13.00;;
75417;SDS011;63997;52.112;5.420;2022-12-22T15:24:12;30.60;;;13.15;;
75417;SDS011;63997;52.112;5.420;2022-12-22T15:26:41;31.47;;;14.30;;
75417;SDS011;63997;52.112;5.420;2022-12-22T15:29:07;29.17;;;13.95;;
75417;SDS011;63997;52.112;5.420;2022-12-22T15:31:34;34.72;;;15.75;;
75417;SDS011;63997;52.112;5.420;2022-12-22T15:34:03;30.20;;;14.90;;
75417;SDS011;63997;52.112;5.420;2022-12-22T15:36:35;33.97;;;15.43;;
75417;SDS011;63997;52.112;5.420;2022-12-22T15:39:02;31.43;;;14.33;;
75417;SDS011;63997;52.112;5.420;2022-12-22T15:41:29;34.47;;;15.40;;
75417;SDS011;63997;52.112;5.420;2022-12-22T15:43:55;32.28;;;15.70;;
75417;SDS011;63997;52.112;5.420;2022-12-22T15:46:24;29.73;;;14.25;;
75417;SDS011;63997;52.112;5.420;2022-12-22T15:48:50;34.10;;;16.35;;
75417;SDS011;63997;52.112;5.420;2022-12-22T15:51:25;33.87;;;14.67;;
75417;SDS011;63997;52.112;5.420;2022-12-22T15:53:53;36.05;;;15.48;;
75417;SDS011;63997;52.112;5.420;2022-12-22T15:56:23;30.23;;;14.80;;
75417;SDS011;63997;52.112;5.420;2022-12-22T15:58:52;34.10;;;14.57;;
75417;SDS011;63997;52.112;5.420;2022-12-22T16:01:19;34.40;;;16.23;;
75417;SDS011;63997;52.112;5.420;2022-12-22T16:03:45;30.93;;;15.20;;
75417;SDS011;63997;52.112;5.420;2022-12-22T16:06:13;33.75;;;15.63;;
75417;SDS011;63997;52.112;5.420;2022-12-22T16:08:42;38.83;;;17.40;;
75417;SDS011;63997;52.112;5.420;2022-12-22T16:11:15;32.63;;;15.30;;
75417;SDS011;63997;52.112;5.420;2022-12-22T16:13:43;38.78;;;15.85;;
75417;SDS011;63997;52.112;5.420;2022-12-22T16:16:10;33.90;;;15.37;;
75417;SDS011;63997;52.112;5.420;2022-12-22T16:18:37;33.15;;;15.65;;
75417;SDS011;63997;52.112;5.420;2022-12-22T16:21:04;34.45;;;17.52;;
75417;SDS011;63997;52.112;5.420;2022-12-22T16:23:45;28.83;;;15.07;;
75417;SDS011;63997;52.112;5.420;2022-12-22T16:26:15;31.35;;;15.25;;
75417;SDS011;63997;52.112;5.420;2022-12-22T16:28:46;35.10;;;15.73;;
75417;SDS011;63997;52.112;5.420;2022-12-22T16:31:14;36.78;;;15.52;;
75417;SDS011;63997;52.112;5.420;2022-12-22T16:33:43;30.63;;;15.18;;
75417;SDS011;63997;52.112;5.420;2022-12-22T16:36:10;36.88;;;15.77;;
75417;SDS011;63997;52.112;5.420;2022-12-22T16:38:36;31.52;;;15.63;;
75417;SDS011;63997;52.112;5.420;2022-12-22T16:41:03;28.27;;;14.20;;
75417;SDS011;63997;52.112;5.420;2022-12-22T16:43:33;29.25;;;13.65;;
75417;SDS011;63997;52.112;5.420;2022-12-22T16:46:17;25.90;;;13.63;;
75417;SDS011;63997;52.112;5.420;2022-12-22T16:48:46;25.92;;;13.07;;
75417;SDS011;63997;52.112;5.420;2022-12-22T16:51:37;25.95;;;12.95;;